createdAt,value
2023-03-20T00:03:44.901Z,9.61
2023-03-20T00:08:47.673Z,9.59
2023-03-20T00:13:49.909Z,9.60
2023-03-20T00:18:51.342Z,9.61
2023-03-20T00:23:54.489Z,9.58
2023-03-20T00:28:56.384Z,9.50
2023-03-20T00:34:03.596Z,9.38
2023-03-20T00:39:05.909Z,9.37
2023-03-20T00:44:22.001Z,9.43
2023-03-20T00:49:28.043Z,9.47
2023-03-20T00:54:30.191Z,9.47
2023-03-20T00:59:35.925Z,9.43
2023-03-20T01:04:42.177Z,9.41
2023-03-20T01:09:43.660Z,9.47
2023-03-20T01:14:51.323Z,9.56
2023-03-20T01:19:53.221Z,9.70
2023-03-20T01:24:54.688Z,9.81
2023-03-20T01:29:56.384Z,9.87
2023-03-20T01:34:58.202Z,10.00
2023-03-20T01:39:59.666Z,10.13
2023-03-20T01:45:01.083Z,10.23
2023-03-20T01:50:26.197Z,10.33
2023-03-20T01:55:28.896Z,10.40
2023-03-20T02:00:30.587Z,10.46
2023-03-20T02:05:33.103Z,10.50
2023-03-20T02:10:35.163Z,10.54
2023-03-20T02:16:09.922Z,10.56
2023-03-20T02:21:44.394Z,10.59
2023-03-20T02:26:55.270Z,10.59
2023-03-20T02:32:18.610Z,10.57
2023-03-20T02:37:43.499Z,10.59
2023-03-20T02:42:49.759Z,10.61
2023-03-20T02:48:16.419Z,10.62
2023-03-20T02:53:42.958Z,10.56
2023-03-20T02:58:53.550Z,10.58
2023-03-20T03:03:57.164Z,10.57
2023-03-20T03:09:04.656Z,10.54
2023-03-20T03:14:07.554Z,10.51
2023-03-20T03:19:15.403Z,10.48
2023-03-20T03:24:41.577Z,10.50
2023-03-20T03:29:46.076Z,10.53
2023-03-20T03:34:47.767Z,10.50
2023-03-20T03:39:54.934Z,10.40
2023-03-20T03:45:17.387Z,10.35
2023-03-20T03:50:29.071Z,10.27
2023-03-20T03:55:39.712Z,10.22
2023-03-20T04:00:43.777Z,10.11
2023-03-20T04:05:47.024Z,10.06
2023-03-20T04:10:48.565Z,10.04
2023-03-20T04:15:50.019Z,10.05
2023-03-20T04:20:52.413Z,10.07
2023-03-20T04:25:54.034Z,10.07
2023-03-20T04:30:57.788Z,10.11
2023-03-20T04:35:59.234Z,10.10
2023-03-20T04:41:00.870Z,10.15
2023-03-20T04:46:02.404Z,10.15
2023-03-20T04:51:03.993Z,10.14
2023-03-20T04:56:05.859Z,10.09
2023-03-20T05:01:07.615Z,10.07
2023-03-20T05:06:09.597Z,10.01
2023-03-20T05:11:10.994Z,9.99
2023-03-20T05:16:12.621Z,10.01
2023-03-20T05:21:14.481Z,9.97
2023-03-20T05:26:16.242Z,9.95
2023-03-20T05:31:18.874Z,9.91
2023-03-20T05:36:20.722Z,9.91
2023-03-20T05:41:22.212Z,9.94
2023-03-20T05:46:23.951Z,10.00
2023-03-20T05:51:25.689Z,10.08
2023-03-20T05:56:27.523Z,10.15
2023-03-20T06:01:29.014Z,10.30
2023-03-20T06:06:30.436Z,10.51
2023-03-20T06:11:33.274Z,10.86
2023-03-20T06:16:36.093Z,11.36
2023-03-20T06:21:37.952Z,11.91
2023-03-20T06:26:39.947Z,12.23
2023-03-20T06:31:41.557Z,12.59
2023-03-20T06:36:45.297Z,12.85
2023-03-20T06:41:47.139Z,12.30
2023-03-20T06:46:48.629Z,11.81
2023-03-20T06:51:50.444Z,11.59
2023-03-20T06:56:52.155Z,11.42
2023-03-20T07:01:54.198Z,11.51
2023-03-20T07:06:56.327Z,11.62
2023-03-20T07:11:59.581Z,11.68
2023-03-20T07:17:01.590Z,11.83
2023-03-20T07:22:09.208Z,12.03
2023-03-20T07:27:11.648Z,12.19
2023-03-20T07:32:13.848Z,12.46
2023-03-20T07:37:16.115Z,12.07
2023-03-20T07:42:18.485Z,11.99
2023-03-20T07:47:20.053Z,12.18
2023-03-20T07:52:21.530Z,12.81
2023-03-20T07:57:23.387Z,13.29
2023-03-20T08:02:24.890Z,14.44
2023-03-20T08:07:26.738Z,15.83
2023-03-20T08:12:28.233Z,16.52
2023-03-20T08:17:29.838Z,19.16
2023-03-20T08:22:31.636Z,21.42
2023-03-20T08:27:35.801Z,20.26
2023-03-20T08:32:37.902Z,18.13
2023-03-20T08:37:39.519Z,17.28
2023-03-20T08:42:41.302Z,17.46
2023-03-20T08:47:43.325Z,17.34
2023-03-20T08:52:46.916Z,17.48
2023-03-20T08:57:48.930Z,18.74
2023-03-20T09:02:51.838Z,18.11
2023-03-20T09:07:53.487Z,18.78
2023-03-20T09:12:55.009Z,18.72
2023-03-20T09:17:56.640Z,19.07
2023-03-20T09:22:58.074Z,20.75
2023-03-20T09:27:59.558Z,21.50
2023-03-20T09:33:01.306Z,20.29
2023-03-20T09:38:03.037Z,20.74
2023-03-20T09:43:22.193Z,20.16
2023-03-20T09:48:38.937Z,19.69
2023-03-20T09:54:01.817Z,19.55
2023-03-20T09:59:06.532Z,20.04
2023-03-20T10:04:10.231Z,20.35
2023-03-20T10:09:27.284Z,19.46
2023-03-20T10:14:31.702Z,17.58
2023-03-20T10:20:04.348Z,17.65
2023-03-20T10:25:28.705Z,18.24
2023-03-20T10:30:42.164Z,19.13
2023-03-20T10:35:58.562Z,19.17
2023-03-20T10:41:00.949Z,18.41
2023-03-20T10:46:13.398Z,18.79
2023-03-20T10:51:19.358Z,19.11
2023-03-20T10:56:32.409Z,19.65
2023-03-20T11:01:35.825Z,19.47
2023-03-20T11:06:57.933Z,19.71
2023-03-20T11:12:14.226Z,19.65
2023-03-20T11:17:16.971Z,18.69
2023-03-20T11:22:21.392Z,17.72
2023-03-20T11:27:28.476Z,17.21
2023-03-20T11:32:47.582Z,16.54
2023-03-20T11:37:52.415Z,16.43
2023-03-20T11:42:57.824Z,16.97
2023-03-20T11:48:02.777Z,17.67
2023-03-20T11:53:30.256Z,17.80
2023-03-20T11:58:32.622Z,17.88
2023-03-20T12:03:55.785Z,18.32
2023-03-20T12:09:02.401Z,17.95
2023-03-20T12:14:12.516Z,17.76
2023-03-20T12:19:20.583Z,17.11
2023-03-20T12:25:10.310Z,17.37
2023-03-20T12:30:27.037Z,17.27
2023-03-20T12:35:33.446Z,16.98
2023-03-20T12:40:44.964Z,17.15
2023-03-20T12:45:58.970Z,16.96
2023-03-20T12:51:13.572Z,17.03
2023-03-20T12:57:00.146Z,17.07
2023-03-20T13:02:07.199Z,16.79
2023-03-20T13:07:41.115Z,16.82
2023-03-20T13:13:03.006Z,16.98
2023-03-20T13:18:45.768Z,17.14
2023-03-20T13:23:59.084Z,16.74
2023-03-20T13:29:25.757Z,16.41
2023-03-20T13:34:57.755Z,16.73
2023-03-20T13:40:38.618Z,16.72
2023-03-20T13:45:42.874Z,16.39
2023-03-20T13:51:23.286Z,16.52
2023-03-20T13:57:16.062Z,16.52
2023-03-20T14:02:31.066Z,16.56
2023-03-20T14:07:38.178Z,16.71
2023-03-20T14:12:44.286Z,16.62
2023-03-20T14:17:48.978Z,16.64
2023-03-20T14:22:53.650Z,16.76
2023-03-20T14:28:21.766Z,16.75
2023-03-20T14:33:30.590Z,16.63
2023-03-20T14:38:37.614Z,16.43
2023-03-20T14:43:58.854Z,16.44
2023-03-20T14:49:21.499Z,16.42
2023-03-20T14:54:34.303Z,16.36
2023-03-20T14:59:37.304Z,16.20
2023-03-20T15:04:45.498Z,15.91
2023-03-20T15:09:51.030Z,16.04
2023-03-20T15:15:01.112Z,16.03
2023-03-20T15:20:21.781Z,15.82
2023-03-20T15:25:31.135Z,15.65
2023-03-20T15:30:41.831Z,15.77
2023-03-20T15:35:43.777Z,15.73
2023-03-20T15:40:51.374Z,15.83
2023-03-20T15:46:16.379Z,15.87
2023-03-20T15:51:26.063Z,15.81
2023-03-20T15:56:29.487Z,15.64
2023-03-20T16:01:34.278Z,15.44
2023-03-20T16:06:48.025Z,15.32
2023-03-20T16:11:58.137Z,15.25
2023-03-20T16:17:02.779Z,15.11
2023-03-20T16:22:21.496Z,14.95
2023-03-20T16:27:46.031Z,14.87
2023-03-20T16:32:53.863Z,14.80
2023-03-20T16:37:59.131Z,14.70
2023-03-20T16:43:12.598Z,14.55
2023-03-20T16:48:24.114Z,14.41
2023-03-20T16:53:29.881Z,14.21
2023-03-20T16:58:33.653Z,14.10
2023-03-20T17:03:48.700Z,14.03
2023-03-20T17:08:54.341Z,13.93
2023-03-20T17:13:57.521Z,13.82
2023-03-20T17:19:14.734Z,13.70
2023-03-20T17:24:18.352Z,13.52
2023-03-20T17:29:24.318Z,13.40
2023-03-20T17:34:26.283Z,13.37
2023-03-20T17:39:28.181Z,13.31
2023-03-20T17:44:30.079Z,13.30
2023-03-20T17:49:32.409Z,13.24
2023-03-20T17:54:33.939Z,13.14
2023-03-20T17:59:35.488Z,13.07
2023-03-20T18:04:37.144Z,13.05
2023-03-20T18:09:41.345Z,13.02
2023-03-20T18:14:44.320Z,13.02
2023-03-20T18:19:45.967Z,13.03
2023-03-20T18:24:47.910Z,13.04
2023-03-20T18:29:49.569Z,13.00
2023-03-20T18:34:51.168Z,12.96
2023-03-20T18:39:52.593Z,12.90
2023-03-20T18:44:54.028Z,12.72
2023-03-20T18:49:55.505Z,12.61
2023-03-20T18:54:56.908Z,12.57
2023-03-20T18:59:58.318Z,12.51
2023-03-20T19:04:59.733Z,12.37
2023-03-20T19:10:01.139Z,12.26
2023-03-20T19:15:02.617Z,12.28
2023-03-20T19:20:04.373Z,12.27
2023-03-20T19:25:06.188Z,12.25
2023-03-20T19:30:33.103Z,12.24
2023-03-20T19:40:57.974Z,12.18
2023-03-20T19:45:59.650Z,12.07
2023-03-20T19:51:01.540Z,12.07
2023-03-20T19:56:03.000Z,12.19
2023-03-20T20:01:13.973Z,12.23
2023-03-20T20:06:16.753Z,12.28
2023-03-20T20:11:20.608Z,12.36
2023-03-20T20:16:22.253Z,12.40
2023-03-20T20:27:13.047Z,12.42
2023-03-20T20:32:19.793Z,12.48
2023-03-20T20:38:13.948Z,12.45
2023-03-20T20:42:47.495Z,12.34
2023-03-20T20:47:49.847Z,12.23
2023-03-20T20:52:51.604Z,12.15
2023-03-20T20:57:57.707Z,12.05
2023-03-20T21:02:59.842Z,11.99
2023-03-20T21:08:01.274Z,11.95
2023-03-20T21:13:03.011Z,11.94
2023-03-20T21:18:05.076Z,11.88
2023-03-20T21:23:06.538Z,11.83
2023-03-20T21:28:09.268Z,11.83
2023-03-20T21:33:10.844Z,11.74
2023-03-20T21:38:55.353Z,11.70
2023-03-20T21:43:34.865Z,11.74
2023-03-20T21:49:19.063Z,11.74
2023-03-20T21:54:47.588Z,11.69
2023-03-20T21:59:57.901Z,11.58
2023-03-20T22:05:24.745Z,11.40
2023-03-20T22:16:10.746Z,11.40
2023-03-20T22:42:49.705Z,11.26
2023-03-20T22:47:42.172Z,11.29
2023-03-20T22:52:49.258Z,11.19
2023-03-20T22:58:05.958Z,11.18
2023-03-20T23:08:33.530Z,11.15
2023-03-20T23:13:37.520Z,10.94
2023-03-20T23:18:39.131Z,10.89
2023-03-20T23:23:40.759Z,10.84
2023-03-20T23:28:45.145Z,10.86
2023-03-20T23:33:52.088Z,10.85
2023-03-20T23:38:53.684Z,10.87
2023-03-20T23:43:55.174Z,10.90
2023-03-20T23:48:56.614Z,10.92
2023-03-20T23:53:58.081Z,10.89
2023-03-20T23:59:08.335Z,10.84
